sensor_id;sensor_type;location;lat;lon;timestamp;P1;durP1;ratioP1;P2;durP2;ratioP2
36931;SDS011;22847;42.654;23.370;2023-04-01T00:01:05;27.58;;;9.25;;
36931;SDS011;22847;42.654;23.370;2023-04-01T00:03:31;24.38;;;9.70;;
36931;SDS011;22847;42.654;23.370;2023-04-01T00:05:58;26.45;;;9.43;;
36931;SDS011;22847;42.654;23.370;2023-04-01T00:08:24;20.10;;;8.73;;
36931;SDS011;22847;42.654;23.370;2023-04-01T00:10:51;23.40;;;9.27;;
36931;SDS011;22847;42.654;23.370;2023-04-01T00:13:17;20.88;;;9.20;;
36931;SDS011;22847;42.654;23.370;2023-04-01T00:15:43;19.15;;;9.38;;
36931;SDS011;22847;42.654;23.370;2023-04-01T00:18:08;17.63;;;9.07;;
36931;SDS011;22847;42.654;23.370;2023-04-01T00:20:34;14.82;;;8.48;;
36931;SDS011;22847;42.654;23.370;2023-04-01T00:22:59;20.30;;;9.18;;
36931;SDS011;22847;42.654;23.370;2023-04-01T00:25:25;19.08;;;9.25;;
36931;SDS011;22847;42.654;23.370;2023-04-01T00:27:50;27.23;;;9.68;;
36931;SDS011;22847;42.654;23.370;2023-04-01T00:30:16;19.95;;;9.40;;
36931;SDS011;22847;42.654;23.370;2023-04-01T00:32:42;21.08;;;9.57;;
36931;SDS011;22847;42.654;23.370;2023-04-01T00:35:08;20.50;;;8.52;;
36931;SDS011;22847;42.654;23.370;2023-04-01T00:37:36;17.70;;;8.90;;
36931;SDS011;22847;42.654;23.370;2023-04-01T00:40:03;21.58;;;9.15;;
36931;SDS011;22847;42.654;23.370;2023-04-01T00:42:30;15.45;;;8.02;;
36931;SDS011;22847;42.654;23.370;2023-04-01T00:44:55;20.85;;;8.32;;
36931;SDS011;22847;42.654;23.370;2023-04-01T00:47:21;18.95;;;8.35;;
36931;SDS011;22847;42.654;23.370;2023-04-01T00:49:49;19.05;;;7.60;;
36931;SDS011;22847;42.654;23.370;2023-04-01T00:52:18;17.60;;;7.57;;
36931;SDS011;22847;42.654;23.370;2023-04-01T00:54:48;17.10;;;8.18;;
36931;SDS011;22847;42.654;23.370;2023-04-01T00:57:19;21.90;;;8.45;;
36931;SDS011;22847;42.654;23.370;2023-04-01T00:59:48;22.38;;;8.63;;
36931;SDS011;22847;42.654;23.370;2023-04-01T01:02:17;16.17;;;7.50;;
36931;SDS011;22847;42.654;23.370;2023-04-01T01:04:43;16.33;;;8.00;;
36931;SDS011;22847;42.654;23.370;2023-04-01T01:14:59;15.20;;;7.45;;
36931;SDS011;22847;42.654;23.370;2023-04-01T01:26:36;14.30;;;5.65;;
36931;SDS011;22847;42.654;23.370;2023-04-01T01:36:59;14.05;;;4.63;;
36931;SDS011;22847;42.654;23.370;2023-04-01T01:39:30;9.30;;;4.05;;
36931;SDS011;22847;42.654;23.370;2023-04-01T01:42:00;9.90;;;3.95;;
36931;SDS011;22847;42.654;23.370;2023-04-01T01:44:29;15.98;;;4.32;;
36931;SDS011;22847;42.654;23.370;2023-04-01T01:46:57;8.73;;;3.97;;
36931;SDS011;22847;42.654;23.370;2023-04-01T01:49:25;12.50;;;4.38;;
36931;SDS011;22847;42.654;23.370;2023-04-01T01:51:51;11.55;;;5.13;;
36931;SDS011;22847;42.654;23.370;2023-04-01T01:54:17;14.63;;;5.00;;
36931;SDS011;22847;42.654;23.370;2023-04-01T01:56:44;13.13;;;5.47;;
36931;SDS011;22847;42.654;23.370;2023-04-01T01:59:14;16.25;;;5.10;;
36931;SDS011;22847;42.654;23.370;2023-04-01T02:01:42;10.63;;;4.00;;
36931;SDS011;22847;42.654;23.370;2023-04-01T02:04:10;16.17;;;4.03;;
36931;SDS011;22847;42.654;23.370;2023-04-01T02:06:39;10.35;;;4.40;;
36931;SDS011;22847;42.654;23.370;2023-04-01T02:09:11;15.98;;;5.18;;
36931;SDS011;22847;42.654;23.370;2023-04-01T02:14:13;12.60;;;4.18;;
36931;SDS011;22847;42.654;23.370;2023-04-01T02:16:57;14.90;;;3.80;;
36931;SDS011;22847;42.654;23.370;2023-04-01T02:19:31;11.88;;;3.92;;
36931;SDS011;22847;42.654;23.370;2023-04-01T02:22:02;12.18;;;4.00;;
36931;SDS011;22847;42.654;23.370;2023-04-01T02:24:30;12.77;;;4.80;;
36931;SDS011;22847;42.654;23.370;2023-04-01T02:26:58;9.40;;;3.53;;
36931;SDS011;22847;42.654;23.370;2023-04-01T02:29:24;11.13;;;3.80;;
36931;SDS011;22847;42.654;23.370;2023-04-01T02:31:50;12.45;;;3.72;;
36931;SDS011;22847;42.654;23.370;2023-04-01T02:34:17;15.38;;;3.70;;
36931;SDS011;22847;42.654;23.370;2023-04-01T02:36:44;17.80;;;3.97;;
36931;SDS011;22847;42.654;23.370;2023-04-01T02:39:10;11.43;;;3.80;;
36931;SDS011;22847;42.654;23.370;2023-04-01T02:41:42;9.43;;;3.40;;
36931;SDS011;22847;42.654;23.370;2023-04-01T02:44:09;7.22;;;4.03;;
36931;SDS011;22847;42.654;23.370;2023-04-01T02:46:36;12.43;;;3.58;;
36931;SDS011;22847;42.654;23.370;2023-04-01T02:49:02;13.73;;;4.78;;
36931;SDS011;22847;42.654;23.370;2023-04-01T02:51:28;12.38;;;4.40;;
36931;SDS011;22847;42.654;23.370;2023-04-01T02:53:54;10.05;;;4.53;;
36931;SDS011;22847;42.654;23.370;2023-04-01T02:56:19;9.18;;;4.35;;
36931;SDS011;22847;42.654;23.370;2023-04-01T02:58:46;10.82;;;4.72;;
36931;SDS011;22847;42.654;23.370;2023-04-01T03:01:12;7.93;;;4.00;;
36931;SDS011;22847;42.654;23.370;2023-04-01T03:03:38;11.45;;;4.85;;
36931;SDS011;22847;42.654;23.370;2023-04-01T03:06:08;10.70;;;4.82;;
36931;SDS011;22847;42.654;23.370;2023-04-01T03:08:35;15.27;;;5.00;;
36931;SDS011;22847;42.654;23.370;2023-04-01T03:11:00;13.75;;;5.05;;
36931;SDS011;22847;42.654;23.370;2023-04-01T03:13:26;13.07;;;5.28;;
36931;SDS011;22847;42.654;23.370;2023-04-01T03:15:51;14.57;;;6.13;;
36931;SDS011;22847;42.654;23.370;2023-04-01T03:18:17;10.93;;;5.10;;
36931;SDS011;22847;42.654;23.370;2023-04-01T03:20:42;12.23;;;5.55;;
36931;SDS011;22847;42.654;23.370;2023-04-01T03:23:08;14.02;;;5.82;;
36931;SDS011;22847;42.654;23.370;2023-04-01T03:25:33;13.88;;;5.35;;
36931;SDS011;22847;42.654;23.370;2023-04-01T03:27:59;14.70;;;6.05;;
36931;SDS011;22847;42.654;23.370;2023-04-01T03:30:24;12.85;;;4.95;;
36931;SDS011;22847;42.654;23.370;2023-04-01T03:32:51;12.65;;;4.95;;
36931;SDS011;22847;42.654;23.370;2023-04-01T03:35:16;12.52;;;4.97;;
36931;SDS011;22847;42.654;23.370;2023-04-01T03:37:42;18.85;;;5.68;;
36931;SDS011;22847;42.654;23.370;2023-04-01T03:40:08;17.77;;;5.53;;
36931;SDS011;22847;42.654;23.370;2023-04-01T03:42:33;13.98;;;5.82;;
36931;SDS011;22847;42.654;23.370;2023-04-01T03:45:00;11.43;;;5.82;;
36931;SDS011;22847;42.654;23.370;2023-04-01T03:47:25;15.40;;;6.45;;
36931;SDS011;22847;42.654;23.370;2023-04-01T03:49:51;16.50;;;5.45;;
36931;SDS011;22847;42.654;23.370;2023-04-01T03:52:16;12.63;;;6.03;;
36931;SDS011;22847;42.654;23.370;2023-04-01T03:54:42;12.98;;;6.38;;
36931;SDS011;22847;42.654;23.370;2023-04-01T03:57:07;18.55;;;7.03;;
36931;SDS011;22847;42.654;23.370;2023-04-01T03:59:33;19.98;;;7.32;;
36931;SDS011;22847;42.654;23.370;2023-04-01T04:01:59;13.65;;;5.95;;
36931;SDS011;22847;42.654;23.370;2023-04-01T04:04:24;12.57;;;5.65;;
36931;SDS011;22847;42.654;23.370;2023-04-01T04:06:51;21.15;;;6.68;;
36931;SDS011;22847;42.654;23.370;2023-04-01T04:09:16;16.70;;;7.28;;
36931;SDS011;22847;42.654;23.370;2023-04-01T04:11:41;17.73;;;9.02;;
36931;SDS011;22847;42.654;23.370;2023-04-01T04:14:07;22.42;;;7.70;;
36931;SDS011;22847;42.654;23.370;2023-04-01T04:16:34;15.93;;;6.95;;
36931;SDS011;22847;42.654;23.370;2023-04-01T04:19:01;15.20;;;6.28;;
36931;SDS011;22847;42.654;23.370;2023-04-01T04:21:28;12.27;;;6.28;;
36931;SDS011;22847;42.654;23.370;2023-04-01T04:23:53;16.80;;;7.13;;
36931;SDS011;22847;42.654;23.370;2023-04-01T04:26:19;17.23;;;6.30;;
36931;SDS011;22847;42.654;23.370;2023-04-01T04:28:44;23.40;;;6.63;;
36931;SDS011;22847;42.654;23.370;2023-04-01T04:31:10;14.57;;;6.38;;
36931;SDS011;22847;42.654;23.370;2023-04-01T04:33:35;9.90;;;5.00;;
36931;SDS011;22847;42.654;23.370;2023-04-01T04:36:01;9.75;;;4.85;;
36931;SDS011;22847;42.654;23.370;2023-04-01T04:38:27;12.07;;;5.13;;
36931;SDS011;22847;42.654;23.370;2023-04-01T04:40:53;29.45;;;5.78;;
36931;SDS011;22847;42.654;23.370;2023-04-01T04:43:19;14.23;;;4.90;;
36931;SDS011;22847;42.654;23.370;2023-04-01T04:45:44;10.20;;;5.07;;
36931;SDS011;22847;42.654;23.370;2023-04-01T04:48:11;10.07;;;4.28;;
36931;SDS011;22847;42.654;23.370;2023-04-01T04:50:41;10.48;;;4.85;;
36931;SDS011;22847;42.654;23.370;2023-04-01T04:53:08;14.43;;;4.63;;
36931;SDS011;22847;42.654;23.370;2023-04-01T04:55:35;15.00;;;5.68;;
36931;SDS011;22847;42.654;23.370;2023-04-01T04:58:00;13.82;;;5.57;;
36931;SDS011;22847;42.654;23.370;2023-04-01T05:00:26;16.42;;;6.10;;
36931;SDS011;22847;42.654;23.370;2023-04-01T05:02:51;14.75;;;6.10;;
36931;SDS011;22847;42.654;23.370;2023-04-01T05:05:16;11.00;;;5.45;;
36931;SDS011;22847;42.654;23.370;2023-04-01T05:07:42;14.85;;;4.88;;
36931;SDS011;22847;42.654;23.370;2023-04-01T05:10:07;12.45;;;5.22;;
36931;SDS011;22847;42.654;23.370;2023-04-01T05:12:34;20.25;;;5.57;;
36931;SDS011;22847;42.654;23.370;2023-04-01T05:15:05;13.38;;;5.40;;
36931;SDS011;22847;42.654;23.370;2023-04-01T05:17:31;15.15;;;5.47;;
36931;SDS011;22847;42.654;23.370;2023-04-01T05:19:57;17.65;;;5.47;;
36931;SDS011;22847;42.654;23.370;2023-04-01T05:22:22;18.20;;;6.07;;
36931;SDS011;22847;42.654;23.370;2023-04-01T05:24:48;11.07;;;5.80;;
36931;SDS011;22847;42.654;23.370;2023-04-01T05:27:14;17.20;;;6.55;;
36931;SDS011;22847;42.654;23.370;2023-04-01T05:29:39;16.65;;;6.57;;
36931;SDS011;22847;42.654;23.370;2023-04-01T05:32:04;17.08;;;6.22;;
36931;SDS011;22847;42.654;23.370;2023-04-01T05:34:30;22.08;;;6.03;;
36931;SDS011;22847;42.654;23.370;2023-04-01T05:36:55;28.15;;;11.88;;
36931;SDS011;22847;42.654;23.370;2023-04-01T05:39:21;16.92;;;6.00;;
36931;SDS011;22847;42.654;23.370;2023-04-01T05:41:46;14.98;;;6.18;;
36931;SDS011;22847;42.654;23.370;2023-04-01T05:44:12;13.25;;;6.63;;
36931;SDS011;22847;42.654;23.370;2023-04-01T05:46:37;18.83;;;5.82;;
36931;SDS011;22847;42.654;23.370;2023-04-01T05:49:03;15.52;;;5.55;;
36931;SDS011;22847;42.654;23.370;2023-04-01T05:51:28;16.92;;;6.55;;
36931;SDS011;22847;42.654;23.370;2023-04-01T05:53:54;17.52;;;7.18;;
36931;SDS011;22847;42.654;23.370;2023-04-01T05:56:19;17.95;;;6.75;;
36931;SDS011;22847;42.654;23.370;2023-04-01T05:58:46;15.43;;;7.03;;
36931;SDS011;22847;42.654;23.370;2023-04-01T06:01:15;13.00;;;6.07;;
36931;SDS011;22847;42.654;23.370;2023-04-01T06:03:40;14.30;;;5.68;;
36931;SDS011;22847;42.654;23.370;2023-04-01T06:06:11;10.55;;;5.05;;
36931;SDS011;22847;42.654;23.370;2023-04-01T06:08:40;12.18;;;5.53;;
36931;SDS011;22847;42.654;23.370;2023-04-01T06:36:03;11.60;;;5.35;;
36931;SDS011;22847;42.654;23.370;2023-04-01T06:41:18;13.63;;;5.25;;
36931;SDS011;22847;42.654;23.370;2023-04-01T06:54:11;14.93;;;6.78;;
36931;SDS011;22847;42.654;23.370;2023-04-01T06:56:42;21.30;;;6.78;;
36931;SDS011;22847;42.654;23.370;2023-04-01T06:59:18;18.52;;;6.85;;
36931;SDS011;22847;42.654;23.370;2023-04-01T07:04:48;38.75;;;7.07;;
36931;SDS011;22847;42.654;23.370;2023-04-01T07:09:53;11.68;;;5.18;;
36931;SDS011;22847;42.654;23.370;2023-04-01T07:14:52;11.40;;;5.50;;
36931;SDS011;22847;42.654;23.370;2023-04-01T07:17:20;12.27;;;5.80;;
36931;SDS011;22847;42.654;23.370;2023-04-01T07:20:51;18.92;;;5.60;;
36931;SDS011;22847;42.654;23.370;2023-04-01T07:22:53;18.83;;;5.80;;
36931;SDS011;22847;42.654;23.370;2023-04-01T07:25:25;15.57;;;6.18;;
36931;SDS011;22847;42.654;23.370;2023-04-01T07:28:13;13.63;;;5.90;;
36931;SDS011;22847;42.654;23.370;2023-04-01T07:30:51;16.00;;;5.68;;
36931;SDS011;22847;42.654;23.370;2023-04-01T07:46:51;17.27;;;6.28;;
36931;SDS011;22847;42.654;23.370;2023-04-01T07:52:08;18.75;;;6.57;;
36931;SDS011;22847;42.654;23.370;2023-04-01T08:00:26;22.10;;;6.45;;
36931;SDS011;22847;42.654;23.370;2023-04-01T08:16:49;12.52;;;5.30;;
36931;SDS011;22847;42.654;23.370;2023-04-01T08:19:36;9.18;;;5.03;;
36931;SDS011;22847;42.654;23.370;2023-04-01T08:22:38;15.80;;;5.45;;
36931;SDS011;22847;42.654;23.370;2023-04-01T08:25:09;13.38;;;4.78;;
36931;SDS011;22847;42.654;23.370;2023-04-01T08:27:43;15.10;;;5.75;;
36931;SDS011;22847;42.654;23.370;2023-04-01T08:32:58;15.40;;;5.78;;
36931;SDS011;22847;42.654;23.370;2023-04-01T08:35:37;16.20;;;5.93;;
36931;SDS011;22847;42.654;23.370;2023-04-01T08:38:12;9.65;;;4.88;;
36931;SDS011;22847;42.654;23.370;2023-04-01T08:48:43;17.20;;;4.70;;
36931;SDS011;22847;42.654;23.370;2023-04-01T08:54:30;17.90;;;4.90;;
36931;SDS011;22847;42.654;23.370;2023-04-01T09:00:00;13.55;;;4.95;;
36931;SDS011;22847;42.654;23.370;2023-04-01T09:05:18;9.85;;;5.20;;
36931;SDS011;22847;42.654;23.370;2023-04-01T09:17:06;12.30;;;4.50;;
36931;SDS011;22847;42.654;23.370;2023-04-01T09:30:47;15.95;;;5.05;;
36931;SDS011;22847;42.654;23.370;2023-04-01T09:38:58;15.77;;;3.95;;
36931;SDS011;22847;42.654;23.370;2023-04-01T09:41:47;10.70;;;3.75;;
36931;SDS011;22847;42.654;23.370;2023-04-01T09:44:21;6.43;;;3.60;;
36931;SDS011;22847;42.654;23.370;2023-04-01T09:47:05;14.55;;;3.33;;
36931;SDS011;22847;42.654;23.370;2023-04-01T09:50:13;8.20;;;3.35;;
36931;SDS011;22847;42.654;23.370;2023-04-01T09:53:09;8.40;;;3.00;;
36931;SDS011;22847;42.654;23.370;2023-04-01T10:20:00;12.60;;;3.78;;
36931;SDS011;22847;42.654;23.370;2023-04-01T10:25:50;13.00;;;3.38;;
36931;SDS011;22847;42.654;23.370;2023-04-01T10:49:50;12.80;;;3.72;;
36931;SDS011;22847;42.654;23.370;2023-04-01T10:53:21;19.48;;;6.53;;
36931;SDS011;22847;42.654;23.370;2023-04-01T11:12:28;8.15;;;3.55;;
36931;SDS011;22847;42.654;23.370;2023-04-01T11:31:25;8.35;;;2.58;;
36931;SDS011;22847;42.654;23.370;2023-04-01T11:33:53;11.60;;;2.22;;
36931;SDS011;22847;42.654;23.370;2023-04-01T11:39:59;10.55;;;2.00;;
36931;SDS011;22847;42.654;23.370;2023-04-01T11:42:39;5.95;;;1.85;;
36931;SDS011;22847;42.654;23.370;2023-04-01T12:07:06;8.48;;;2.65;;
36931;SDS011;22847;42.654;23.370;2023-04-01T12:12:36;18.85;;;6.72;;
36931;SDS011;22847;42.654;23.370;2023-04-01T12:16:07;9.88;;;3.10;;
36931;SDS011;22847;42.654;23.370;2023-04-01T12:29:49;8.38;;;2.72;;
36931;SDS011;22847;42.654;23.370;2023-04-01T12:43:34;13.80;;;5.05;;
36931;SDS011;22847;42.654;23.370;2023-04-01T12:46:13;12.02;;;4.38;;
36931;SDS011;22847;42.654;23.370;2023-04-01T12:59:47;9.98;;;3.67;;
36931;SDS011;22847;42.654;23.370;2023-04-01T13:02:23;5.93;;;3.28;;
36931;SDS011;22847;42.654;23.370;2023-04-01T13:22:06;4.53;;;2.33;;
36931;SDS011;22847;42.654;23.370;2023-04-01T13:27:28;7.15;;;3.17;;
36931;SDS011;22847;42.654;23.370;2023-04-01T13:48:54;4.97;;;2.65;;
36931;SDS011;22847;42.654;23.370;2023-04-01T13:51:45;6.97;;;2.50;;
36931;SDS011;22847;42.654;23.370;2023-04-01T14:05:52;4.35;;;1.60;;
36931;SDS011;22847;42.654;23.370;2023-04-01T14:26:16;11.40;;;5.07;;
36931;SDS011;22847;42.654;23.370;2023-04-01T14:31:36;17.45;;;6.85;;
36931;SDS011;22847;42.654;23.370;2023-04-01T14:42:18;9.82;;;3.95;;
36931;SDS011;22847;42.654;23.370;2023-04-01T14:47:50;8.32;;;4.32;;
36931;SDS011;22847;42.654;23.370;2023-04-01T14:50:23;7.68;;;3.10;;
36931;SDS011;22847;42.654;23.370;2023-04-01T14:55:19;11.60;;;3.50;;
36931;SDS011;22847;42.654;23.370;2023-04-01T14:57:57;7.95;;;4.15;;
36931;SDS011;22847;42.654;23.370;2023-04-01T15:03:58;8.40;;;3.40;;
36931;SDS011;22847;42.654;23.370;2023-04-01T15:08:57;11.40;;;3.35;;
36931;SDS011;22847;42.654;23.370;2023-04-01T15:25:17;8.35;;;4.25;;
36931;SDS011;22847;42.654;23.370;2023-04-01T15:36:44;10.88;;;4.90;;
36931;SDS011;22847;42.654;23.370;2023-04-01T15:39:29;6.47;;;3.83;;
36931;SDS011;22847;42.654;23.370;2023-04-01T15:42:23;12.50;;;5.10;;
36931;SDS011;22847;42.654;23.370;2023-04-01T15:47:42;14.88;;;5.00;;
36931;SDS011;22847;42.654;23.370;2023-04-01T15:50:29;8.98;;;4.00;;
36931;SDS011;22847;42.654;23.370;2023-04-01T15:53:25;10.20;;;3.90;;
36931;SDS011;22847;42.654;23.370;2023-04-01T15:58:54;7.20;;;2.30;;
36931;SDS011;22847;42.654;23.370;2023-04-01T16:01:48;4.57;;;2.50;;
36931;SDS011;22847;42.654;23.370;2023-04-01T16:12:28;6.00;;;3.00;;
36931;SDS011;22847;42.654;23.370;2023-04-01T16:15:08;5.93;;;2.90;;
36931;SDS011;22847;42.654;23.370;2023-04-01T16:29:08;7.00;;;3.58;;
36931;SDS011;22847;42.654;23.370;2023-04-01T16:40:43;5.88;;;3.05;;
36931;SDS011;22847;42.654;23.370;2023-04-01T16:43:19;4.90;;;3.20;;
36931;SDS011;22847;42.654;23.370;2023-04-01T16:51:32;5.03;;;2.42;;
36931;SDS011;22847;42.654;23.370;2023-04-01T16:54:30;2.30;;;2.00;;
36931;SDS011;22847;42.654;23.370;2023-04-01T17:02:42;4.13;;;2.42;;
36931;SDS011;22847;42.654;23.370;2023-04-01T17:05:15;2.20;;;1.70;;
36931;SDS011;22847;42.654;23.370;2023-04-01T17:15:46;1.67;;;1.45;;
36931;SDS011;22847;42.654;23.370;2023-04-01T17:18:35;3.25;;;2.38;;
36931;SDS011;22847;42.654;23.370;2023-04-01T17:23:43;2.60;;;1.52;;
36931;SDS011;22847;42.654;23.370;2023-04-01T17:42:57;2.17;;;1.50;;
36931;SDS011;22847;42.654;23.370;2023-04-01T17:45:30;1.40;;;1.30;;
36931;SDS011;22847;42.654;23.370;2023-04-01T18:01:40;2.13;;;1.88;;
36931;SDS011;22847;42.654;23.370;2023-04-01T18:04:45;2.80;;;1.83;;
36931;SDS011;22847;42.654;23.370;2023-04-01T18:07:29;2.45;;;2.00;;
36931;SDS011;22847;42.654;23.370;2023-04-01T18:21:43;4.55;;;2.97;;
36931;SDS011;22847;42.654;23.370;2023-04-01T18:26:51;3.95;;;2.60;;
36931;SDS011;22847;42.654;23.370;2023-04-01T18:45:56;3.67;;;2.67;;
36931;SDS011;22847;42.654;23.370;2023-04-01T18:51:19;3.75;;;2.30;;
36931;SDS011;22847;42.654;23.370;2023-04-01T18:54:00;3.67;;;2.63;;
36931;SDS011;22847;42.654;23.370;2023-04-01T18:56:34;2.78;;;1.95;;
36931;SDS011;22847;42.654;23.370;2023-04-01T19:01:39;7.97;;;2.28;;
36931;SDS011;22847;42.654;23.370;2023-04-01T19:04:12;2.42;;;2.00;;
36931;SDS011;22847;42.654;23.370;2023-04-01T19:06:48;2.60;;;2.40;;
36931;SDS011;22847;42.654;23.370;2023-04-01T19:09:24;3.38;;;1.88;;
36931;SDS011;22847;42.654;23.370;2023-04-01T19:12:03;2.65;;;1.73;;
36931;SDS011;22847;42.654;23.370;2023-04-01T19:17:43;2.70;;;1.90;;
36931;SDS011;22847;42.654;23.370;2023-04-01T19:23:12;2.83;;;2.00;;
36931;SDS011;22847;42.654;23.370;2023-04-01T19:26:09;2.72;;;2.25;;
36931;SDS011;22847;42.654;23.370;2023-04-01T19:32:03;2.03;;;1.70;;
36931;SDS011;22847;42.654;23.370;2023-04-01T19:34:59;2.22;;;1.52;;
36931;SDS011;22847;42.654;23.370;2023-04-01T19:37:45;2.83;;;1.60;;
36931;SDS011;22847;42.654;23.370;2023-04-01T19:43:20;2.65;;;1.58;;
36931;SDS011;22847;42.654;23.370;2023-04-01T19:45:59;1.77;;;1.20;;
36931;SDS011;22847;42.654;23.370;2023-04-01T19:53:58;1.70;;;1.35;;
36931;SDS011;22847;42.654;23.370;2023-04-01T19:56:45;1.30;;;1.17;;
36931;SDS011;22847;42.654;23.370;2023-04-01T20:04:42;2.75;;;1.70;;
36931;SDS011;22847;42.654;23.370;2023-04-01T20:07:13;6.05;;;1.50;;
36931;SDS011;22847;42.654;23.370;2023-04-01T20:15:21;1.60;;;1.50;;
36931;SDS011;22847;42.654;23.370;2023-04-01T20:18:02;6.07;;;1.70;;
36931;SDS011;22847;42.654;23.370;2023-04-01T20:20:31;2.45;;;1.65;;
36931;SDS011;22847;42.654;23.370;2023-04-01T20:25:40;1.50;;;1.40;;
36931;SDS011;22847;42.654;23.370;2023-04-01T20:28:14;1.50;;;1.40;;
36931;SDS011;22847;42.654;23.370;2023-04-01T20:45:44;2.35;;;1.42;;
36931;SDS011;22847;42.654;23.370;2023-04-01T20:51:06;1.55;;;1.40;;
36931;SDS011;22847;42.654;23.370;2023-04-01T20:53:36;1.88;;;1.67;;
36931;SDS011;22847;42.654;23.370;2023-04-01T20:56:10;3.47;;;2.50;;
36931;SDS011;22847;42.654;23.370;2023-04-01T21:09:52;5.65;;;1.70;;
36931;SDS011;22847;42.654;23.370;2023-04-01T21:12:34;2.50;;;1.60;;
36931;SDS011;22847;42.654;23.370;2023-04-01T21:25:33;1.95;;;1.40;;
36931;SDS011;22847;42.654;23.370;2023-04-01T21:28:28;3.67;;;1.50;;
36931;SDS011;22847;42.654;23.370;2023-04-01T21:40:18;9.82;;;3.50;;
36931;SDS011;22847;42.654;23.370;2023-04-01T21:43:34;3.72;;;1.70;;
36931;SDS011;22847;42.654;23.370;2023-04-01T22:00:17;2.50;;;1.50;;
36931;SDS011;22847;42.654;23.370;2023-04-01T22:05:28;1.70;;;1.45;;
36931;SDS011;22847;42.654;23.370;2023-04-01T22:11:12;1.92;;;1.58;;
36931;SDS011;22847;42.654;23.370;2023-04-01T22:13:50;3.42;;;1.45;;
36931;SDS011;22847;42.654;23.370;2023-04-01T22:19:05;2.08;;;1.30;;
36931;SDS011;22847;42.654;23.370;2023-04-01T22:32:36;1.63;;;1.35;;
36931;SDS011;22847;42.654;23.370;2023-04-01T22:35:12;2.58;;;1.55;;
36931;SDS011;22847;42.654;23.370;2023-04-01T22:42:58;3.67;;;1.20;;
36931;SDS011;22847;42.654;23.370;2023-04-01T22:48:01;1.38;;;1.20;;
36931;SDS011;22847;42.654;23.370;2023-04-01T22:50:48;3.55;;;1.00;;
36931;SDS011;22847;42.654;23.370;2023-04-01T22:53:22;1.92;;;1.02;;
36931;SDS011;22847;42.654;23.370;2023-04-01T22:55:51;1.35;;;1.10;;
36931;SDS011;22847;42.654;23.370;2023-04-01T23:01:21;1.90;;;1.10;;
36931;SDS011;22847;42.654;23.370;2023-04-01T23:03:52;3.58;;;1.10;;
36931;SDS011;22847;42.654;23.370;2023-04-01T23:06:31;3.20;;;1.15;;
36931;SDS011;22847;42.654;23.370;2023-04-01T23:16:46;2.30;;;1.10;;
36931;SDS011;22847;42.654;23.370;2023-04-01T23:19:25;1.42;;;0.90;;
36931;SDS011;22847;42.654;23.370;2023-04-01T23:22:04;1.23;;;0.75;;
36931;SDS011;22847;42.654;23.370;2023-04-01T23:24:41;1.10;;;0.77;;
36931;SDS011;22847;42.654;23.370;2023-04-01T23:27:23;1.55;;;0.90;;
36931;SDS011;22847;42.654;23.370;2023-04-01T23:30:00;2.50;;;0.90;;
36931;SDS011;22847;42.654;23.370;2023-04-01T23:32:26;2.15;;;0.80;;
36931;SDS011;22847;42.654;23.370;2023-04-01T23:34:52;3.15;;;0.90;;
36931;SDS011;22847;42.654;23.370;2023-04-01T23:37:20;3.55;;;0.95;;
36931;SDS011;22847;42.654;23.370;2023-04-01T23:39:48;1.45;;;0.82;;
36931;SDS011;22847;42.654;23.370;2023-04-01T23:42:29;1.42;;;0.80;;
36931;SDS011;22847;42.654;23.370;2023-04-01T23:45:03;1.35;;;0.90;;
36931;SDS011;22847;42.654;23.370;2023-04-01T23:47:37;0.88;;;0.80;;
36931;SDS011;22847;42.654;23.370;2023-04-01T23:50:11;2.33;;;0.70;;
36931;SDS011;22847;42.654;23.370;2023-04-01T23:53:04;1.38;;;0.75;;
36931;SDS011;22847;42.654;23.370;2023-04-01T23:55:41;0.60;;;0.60;;
